Impacts TAF Board
For situational awareness. Not to be used for flight planning purposes.
IDs:

KSLC - Salt Lake City Intl, UT, US

Issued at 2031 UTC 19 Jan 2019
Updated at 2130 UTC 19 Jan 2019
Potential Impact None Slight Moderate High
Time<<20/22Z 20/23Z 21/00Z 21/01Z 21/02Z 21/03Z 21/04Z 21/05Z 21/06Z 21/07Z 21/08Z 21/09Z 21/10Z
Type PRVL PRVL
VIS >6 >6
CIG -- --
Cover SCT SCT
FltCat VFR VFR
WX -- --
WDir 170 170
WSpd 10 10
WGst -- --
Raw TAF
KSLC 192031Z 1921/2024 15008KT P6SM OVC040
  FM192300 16007KT P6SM BKN070
  FM200600 15006KT P6SM SCT070
  FM201900 17010KT P6SM SCT150


METAR Board
Radar Display
Forecast Discussion
For situational awareness. Not to be used for flight planning purposes.